createdAt,value
2022-12-03T00:01:26.969Z,3.84
2022-12-03T00:06:50.129Z,4.25
2022-12-03T00:12:16.125Z,3.71
2022-12-03T00:17:38.591Z,3.95
2022-12-03T00:23:04.556Z,3.63
2022-12-03T00:28:30.749Z,4.50
2022-12-03T00:33:52.192Z,4.44
2022-12-03T00:39:18.598Z,4.18
2022-12-03T00:44:45.766Z,3.84
2022-12-03T00:50:12.979Z,4.08
2022-12-03T00:55:39.914Z,4.58
2022-12-03T01:01:02.970Z,4.84
2022-12-03T01:06:29.478Z,4.55
2022-12-03T01:11:56.935Z,4.02
2022-12-03T01:17:27.484Z,4.65
2022-12-03T01:22:54.076Z,4.53
2022-12-03T01:28:20.071Z,4.58
2022-12-03T01:33:44.189Z,5.02
2022-12-03T01:39:08.011Z,4.81
2022-12-03T01:44:34.023Z,4.75
2022-12-03T01:49:59.463Z,4.93
2022-12-03T01:55:27.948Z,5.56
2022-12-03T02:00:49.272Z,5.52
2022-12-03T02:06:12.614Z,5.59
2022-12-03T02:11:37.171Z,5.28
2022-12-03T02:17:00.477Z,5.57
2022-12-03T02:22:24.451Z,6.19
2022-12-03T02:27:48.444Z,6.14
2022-12-03T02:33:13.693Z,5.92
2022-12-03T02:38:36.796Z,5.87
2022-12-03T02:44:03.234Z,6.00
2022-12-03T02:49:28.504Z,5.68
2022-12-03T02:54:49.665Z,6.27
2022-12-03T03:00:15.975Z,5.95
2022-12-03T03:05:42.431Z,6.60
2022-12-03T03:11:08.072Z,6.48
2022-12-03T03:16:35.368Z,6.88
2022-12-03T03:22:02.065Z,7.00
2022-12-03T03:27:28.722Z,6.95
2022-12-03T03:32:49.873Z,6.73
2022-12-03T03:38:16.109Z,7.24
2022-12-03T03:43:40.684Z,5.87
2022-12-03T03:49:04.497Z,6.86
2022-12-03T03:54:25.912Z,6.55
2022-12-03T03:59:47.906Z,6.29
2022-12-03T04:05:09.389Z,6.73
2022-12-03T04:10:31.101Z,6.27
2022-12-03T04:15:52.397Z,5.87
2022-12-03T04:21:17.838Z,6.92
2022-12-03T04:26:44.515Z,6.61
2022-12-03T04:32:09.218Z,6.10
2022-12-03T04:37:36.055Z,6.48
2022-12-03T04:43:03.891Z,6.84
2022-12-03T04:48:31.090Z,6.37
2022-12-03T04:59:20.535Z,6.30
2022-12-03T05:04:47.273Z,7.07
2022-12-03T05:10:13.908Z,7.51
2022-12-03T05:15:41.548Z,6.67
2022-12-03T05:21:08.849Z,7.39
2022-12-03T05:26:30.754Z,7.01
2022-12-03T05:31:52.299Z,7.49
2022-12-03T05:37:14.569Z,7.26
2022-12-03T05:42:37.961Z,6.84
2022-12-03T05:48:04.148Z,7.44
2022-12-03T05:53:30.495Z,6.56
2022-12-03T05:58:56.142Z,7.42
2022-12-03T06:04:21.920Z,8.04
2022-12-03T06:09:48.364Z,7.57
2022-12-03T06:15:09.858Z,7.31
2022-12-03T06:20:31.591Z,7.65
2022-12-03T06:25:57.282Z,7.61
2022-12-03T06:31:21.265Z,7.93
2022-12-03T06:36:47.125Z,7.84
2022-12-03T06:42:14.464Z,7.52
2022-12-03T06:47:40.356Z,7.78
2022-12-03T06:53:07.037Z,7.52
2022-12-03T06:58:33.594Z,8.17
2022-12-03T07:04:01.063Z,7.84
2022-12-03T07:09:25.063Z,7.45
2022-12-03T07:14:51.938Z,7.89
2022-12-03T07:20:18.350Z,7.42
2022-12-03T07:25:43.901Z,7.59
2022-12-03T07:31:09.514Z,7.48
2022-12-03T07:36:35.561Z,7.51
2022-12-03T07:42:01.721Z,8.63
2022-12-03T07:47:28.002Z,7.83
2022-12-03T07:52:53.954Z,8.89
2022-12-03T07:58:18.492Z,7.65
2022-12-03T08:03:43.624Z,7.62
2022-12-03T08:09:10.896Z,7.45
2022-12-03T08:14:35.636Z,7.71
2022-12-03T08:20:01.589Z,7.78
2022-12-03T08:25:31.735Z,7.23
2022-12-03T08:30:52.779Z,7.69
2022-12-03T08:36:20.264Z,7.79
2022-12-03T08:41:42.458Z,6.63
2022-12-03T08:47:09.024Z,7.35
2022-12-03T08:52:37.182Z,7.24
2022-12-03T08:58:02.168Z,6.67
2022-12-03T09:03:31.922Z,7.38
2022-12-03T09:09:00.128Z,6.94
2022-12-03T09:14:19.202Z,7.74
2022-12-03T09:19:46.072Z,7.43
2022-12-03T09:25:06.495Z,7.22
2022-12-03T09:30:32.226Z,7.45
2022-12-03T09:35:56.239Z,7.32
2022-12-03T09:41:20.676Z,8.20
2022-12-03T09:46:46.023Z,7.09
2022-12-03T09:52:09.896Z,6.59
2022-12-03T09:57:33.233Z,6.41
2022-12-03T10:02:56.455Z,6.36
2022-12-03T10:08:20.323Z,7.25
2022-12-03T10:13:44.597Z,7.27
2022-12-03T10:19:07.429Z,6.90
2022-12-03T10:24:30.929Z,6.99
2022-12-03T10:29:53.152Z,7.20
2022-12-03T10:35:18.975Z,6.96
2022-12-03T10:40:46.748Z,7.03
2022-12-03T10:46:09.937Z,6.92
2022-12-03T10:51:38.269Z,6.57
2022-12-03T10:57:05.205Z,6.73
2022-12-03T11:02:30.507Z,7.01
2022-12-03T11:07:57.178Z,7.36
2022-12-03T11:13:23.600Z,7.16
2022-12-03T11:19:07.236Z,6.81
2022-12-03T11:24:37.867Z,6.68
2022-12-03T11:30:05.065Z,7.17
2022-12-03T11:35:28.167Z,8.24
2022-12-03T11:41:25.042Z,7.38
2022-12-03T11:46:46.855Z,7.55
2022-12-03T11:52:12.744Z,7.73
2022-12-03T11:57:45.465Z,6.98
2022-12-03T12:03:17.832Z,6.93
2022-12-03T12:08:44.849Z,7.00
2022-12-03T12:14:16.763Z,8.04
2022-12-03T12:19:47.342Z,9.33
2022-12-03T12:25:09.940Z,7.42
2022-12-03T12:30:48.980Z,8.31
2022-12-03T12:36:10.772Z,8.14
2022-12-03T12:41:34.624Z,7.48
2022-12-03T12:46:56.183Z,7.81
2022-12-03T12:52:22.498Z,7.16
2022-12-03T12:57:46.479Z,8.28
2022-12-03T13:03:11.573Z,7.77
2022-12-03T13:08:38.670Z,7.74
2022-12-03T13:14:02.424Z,8.08
2022-12-03T13:19:29.780Z,8.53
2022-12-03T13:24:53.685Z,8.12
2022-12-03T13:30:18.241Z,7.79
2022-12-03T13:35:45.345Z,8.92
2022-12-03T13:41:07.590Z,10.04
2022-12-03T13:46:33.914Z,9.05
2022-12-03T13:51:59.059Z,10.22
2022-12-03T13:57:26.008Z,10.28
2022-12-03T14:02:52.878Z,9.08
2022-12-03T14:08:18.556Z,9.04
2022-12-03T14:13:41.557Z,9.19
2022-12-03T14:19:02.798Z,10.02
2022-12-03T14:24:27.146Z,8.84
2022-12-03T14:29:49.912Z,7.98
2022-12-03T14:35:15.994Z,8.79
2022-12-03T14:40:40.860Z,8.74
2022-12-03T14:46:08.456Z,8.86
2022-12-03T14:51:33.327Z,8.41
2022-12-03T14:57:00.478Z,8.97
2022-12-03T15:02:25.842Z,8.25
2022-12-03T15:07:51.386Z,9.10
2022-12-03T15:13:16.990Z,8.32
2022-12-03T15:18:42.403Z,8.49
2022-12-03T15:24:10.169Z,8.81
2022-12-03T15:29:36.458Z,9.50
2022-12-03T15:35:03.712Z,8.50
2022-12-03T15:40:31.137Z,8.43
2022-12-03T15:45:57.488Z,8.43
2022-12-03T15:51:22.007Z,8.92
2022-12-03T15:56:43.557Z,9.43
2022-12-03T16:02:10.400Z,9.62
2022-12-03T16:07:37.966Z,8.11
2022-12-03T16:13:04.482Z,9.50
2022-12-03T16:18:31.022Z,9.90
2022-12-03T16:23:57.309Z,8.90
2022-12-03T16:29:21.256Z,9.83
2022-12-03T16:34:48.499Z,9.24
2022-12-03T16:40:11.850Z,10.30
2022-12-03T16:45:35.610Z,9.03
2022-12-03T16:51:01.144Z,9.86
2022-12-03T16:56:28.457Z,9.05
2022-12-03T17:01:53.140Z,10.65
2022-12-03T17:07:20.216Z,9.65
2022-12-03T17:13:08.899Z,8.66
2022-12-03T17:18:13.562Z,10.68
2022-12-03T17:23:41.156Z,10.63
2022-12-03T17:29:08.891Z,10.44
2022-12-03T17:34:35.654Z,10.24
2022-12-03T17:40:02.723Z,9.02
2022-12-03T17:45:27.503Z,8.04
2022-12-03T17:50:48.614Z,7.70
2022-12-03T17:56:11.536Z,8.29
2022-12-03T18:01:32.530Z,7.70
2022-12-03T18:07:02.155Z,6.50
2022-12-03T18:12:25.304Z,7.59
2022-12-03T18:17:49.426Z,7.87
2022-12-03T18:23:15.230Z,6.85
2022-12-03T18:28:36.154Z,7.26
2022-12-03T18:34:02.644Z,7.73
2022-12-03T18:39:26.403Z,7.60
2022-12-03T18:44:49.798Z,7.32
2022-12-03T18:50:11.386Z,7.45
2022-12-03T18:55:39.835Z,6.89
2022-12-03T19:01:03.745Z,6.32
2022-12-03T19:06:31.020Z,6.59
2022-12-03T19:11:57.211Z,6.51
2022-12-03T19:17:35.246Z,7.62
2022-12-03T19:22:58.818Z,7.32
2022-12-03T19:28:22.419Z,7.88
2022-12-03T19:33:46.531Z,7.41
2022-12-03T19:39:12.383Z,6.90
2022-12-03T19:44:39.528Z,7.10
2022-12-03T19:50:06.385Z,4.42
2022-12-03T19:55:33.296Z,6.33
2022-12-03T20:01:00.078Z,6.21
2022-12-03T20:06:24.501Z,6.22
2022-12-03T20:11:51.067Z,6.51
2022-12-03T20:17:17.897Z,6.17
2022-12-03T20:22:43.899Z,6.08
2022-12-03T20:28:10.116Z,6.65
2022-12-03T20:33:33.600Z,7.76
2022-12-03T20:38:59.921Z,7.29
2022-12-03T20:44:25.711Z,7.24
2022-12-03T20:49:49.201Z,6.83
2022-12-03T20:55:10.356Z,5.30
2022-12-03T21:00:37.230Z,6.04
2022-12-03T21:06:04.418Z,5.74
2022-12-03T21:11:30.268Z,4.11
2022-12-03T21:17:08.013Z,5.30
2022-12-03T21:22:19.356Z,4.46
2022-12-03T21:27:44.986Z,4.96
2022-12-03T21:33:10.841Z,5.19
2022-12-03T21:38:35.176Z,5.43
2022-12-03T21:43:58.138Z,5.05
2022-12-03T21:49:22.423Z,5.55
2022-12-03T21:54:48.815Z,4.64
2022-12-03T22:00:10.240Z,4.00
2022-12-03T22:05:38.669Z,4.73
2022-12-03T22:11:05.314Z,4.00
2022-12-03T22:16:30.774Z,4.31
2022-12-03T22:21:57.453Z,4.38
2022-12-03T22:27:23.028Z,4.20
2022-12-03T22:32:48.729Z,3.76
2022-12-03T22:38:09.876Z,4.79
2022-12-03T22:43:39.814Z,4.91
2022-12-03T22:49:07.624Z,4.13
2022-12-03T22:54:31.415Z,4.45
2022-12-03T22:59:52.449Z,3.83
2022-12-03T23:05:19.557Z,3.78
2022-12-03T23:10:44.992Z,3.60
2022-12-03T23:16:12.299Z,4.23
2022-12-03T23:21:38.967Z,4.01
2022-12-03T23:27:00.234Z,4.21
2022-12-03T23:32:27.811Z,4.49
2022-12-03T23:37:53.475Z,3.69
2022-12-03T23:43:14.862Z,4.35
2022-12-03T23:48:43.865Z,5.19
2022-12-03T23:54:08.216Z,4.78
2022-12-03T23:59:32.980Z,4.11
